createdAt,value
2019-05-01T00:00:37.794Z,23.80
2019-05-01T00:01:37.814Z,23.90
2019-05-01T00:02:37.787Z,23.20
2019-05-01T00:03:37.777Z,70.00
2019-05-01T00:04:37.779Z,49.60
2019-05-01T00:05:37.773Z,25.20
2019-05-01T00:06:37.801Z,24.90
2019-05-01T00:07:37.773Z,26.70
2019-05-01T00:08:37.765Z,28.90
2019-05-01T00:09:37.799Z,28.00
2019-05-01T00:10:37.762Z,28.40
2019-05-01T00:11:37.757Z,28.80
2019-05-01T00:12:37.778Z,26.50
2019-05-01T00:13:37.749Z,24.50
2019-05-01T00:14:37.746Z,24.90
2019-05-01T00:15:37.742Z,24.40
2019-05-01T00:16:37.734Z,24.50
2019-05-01T00:17:37.769Z,24.40
2019-05-01T00:18:37.734Z,24.90
2019-05-01T00:19:37.725Z,24.20
2019-05-01T00:20:37.728Z,24.80
2019-05-01T00:21:37.725Z,25.70
2019-05-01T00:22:37.746Z,26.00
2019-05-01T00:23:37.718Z,22.80
2019-05-01T00:24:37.715Z,21.30
2019-05-01T00:25:37.712Z,21.40
2019-05-01T00:26:37.706Z,21.70
2019-05-01T00:27:37.726Z,21.60
2019-05-01T00:28:37.709Z,23.30
2019-05-01T00:29:37.694Z,25.60
2019-05-01T00:30:37.719Z,27.20
2019-05-01T00:31:37.687Z,27.80
2019-05-01T00:32:37.691Z,29.50
2019-05-01T00:33:37.709Z,28.60
2019-05-01T00:34:37.679Z,30.40
2019-05-01T00:35:37.675Z,30.30
2019-05-01T00:36:37.671Z,31.30
2019-05-01T00:37:37.671Z,28.10
2019-05-01T00:38:37.691Z,28.00
2019-05-01T00:39:37.659Z,27.90
2019-05-01T00:40:37.659Z,26.90
2019-05-01T00:41:37.651Z,25.60
2019-05-01T00:42:37.648Z,25.60
2019-05-01T00:43:37.672Z,25.20
2019-05-01T00:44:37.648Z,25.50
2019-05-01T00:45:37.639Z,26.30
2019-05-01T00:46:37.636Z,27.60
2019-05-01T00:47:37.632Z,27.10
2019-05-01T00:48:37.656Z,27.10
2019-05-01T00:49:37.624Z,29.90
2019-05-01T00:50:37.618Z,29.40
2019-05-01T00:51:37.624Z,29.60
2019-05-01T00:52:37.612Z,30.00
2019-05-01T00:53:37.636Z,29.60
2019-05-01T00:54:37.605Z,29.70
2019-05-01T00:55:37.600Z,30.70
2019-05-01T00:56:37.602Z,31.70
2019-05-01T00:57:37.597Z,32.80
2019-05-01T00:58:37.617Z,34.10
2019-05-01T00:59:37.589Z,35.60
2019-05-01T01:00:43.111Z,37.80
2019-05-01T01:01:37.585Z,34.80
2019-05-01T01:02:37.577Z,31.80
2019-05-01T01:03:37.602Z,32.40
2019-05-01T01:04:37.569Z,30.50
2019-05-01T01:05:37.598Z,29.20
2019-05-01T01:06:37.566Z,28.20
2019-05-01T01:07:37.557Z,28.70
2019-05-01T01:08:37.556Z,29.60
2019-05-01T01:09:37.555Z,31.80
2019-05-01T01:10:37.577Z,29.10
2019-05-01T01:11:37.546Z,28.70
2019-05-01T01:12:37.553Z,30.30
2019-05-01T01:13:37.540Z,27.50
2019-05-01T01:14:37.534Z,27.70
2019-05-01T01:15:37.564Z,28.50
2019-05-01T01:16:37.534Z,27.50
2019-05-01T01:17:37.525Z,27.00
2019-05-01T01:18:37.522Z,27.90
2019-05-01T01:19:37.520Z,29.10
2019-05-01T01:20:37.514Z,29.50
2019-05-01T01:21:37.538Z,29.80
2019-05-01T01:22:37.506Z,31.30
2019-05-01T01:23:37.500Z,31.10
2019-05-01T01:24:37.502Z,32.20
2019-05-01T01:25:37.501Z,31.60
2019-05-01T01:26:37.519Z,33.40
2019-05-01T01:27:37.491Z,32.80
2019-05-01T01:28:37.489Z,33.30
2019-05-01T01:29:37.479Z,34.70
2019-05-01T01:30:37.485Z,32.70
2019-05-01T01:31:37.503Z,33.90
2019-05-01T01:32:37.472Z,34.70
2019-05-01T01:33:37.467Z,34.40
2019-05-01T01:34:37.465Z,33.30
2019-05-01T01:35:37.459Z,33.80
2019-05-01T01:36:37.481Z,33.30
2019-05-01T01:37:37.454Z,33.20
2019-05-01T01:38:37.452Z,35.00
2019-05-01T01:39:37.444Z,33.10
2019-05-01T01:40:37.443Z,32.40
2019-05-01T01:41:37.467Z,32.60
2019-05-01T01:42:37.440Z,33.70
2019-05-01T01:43:37.441Z,32.20
2019-05-01T01:44:37.429Z,34.00
2019-05-01T01:45:37.424Z,33.80
2019-05-01T01:46:37.449Z,34.20
2019-05-01T01:47:37.423Z,31.00
2019-05-01T01:48:37.416Z,31.90
2019-05-01T01:49:37.412Z,31.70
2019-05-01T01:50:37.409Z,32.10
2019-05-01T01:51:37.436Z,33.30
2019-05-01T01:52:37.403Z,33.40
2019-05-01T01:53:37.396Z,37.30
2019-05-01T01:54:37.404Z,39.10
2019-05-01T01:55:37.396Z,39.10
2019-05-01T01:56:37.417Z,35.70
2019-05-01T01:57:37.384Z,34.40
2019-05-01T01:58:37.376Z,34.90
2019-05-01T01:59:37.373Z,35.70
2019-05-01T02:00:37.377Z,36.10
2019-05-01T02:01:37.395Z,36.40
2019-05-01T02:02:37.368Z,38.60
2019-05-01T02:03:37.365Z,39.60
2019-05-01T02:04:37.363Z,43.60
2019-05-01T02:05:37.357Z,41.90
2019-05-01T02:06:37.390Z,41.70
2019-05-01T02:07:37.349Z,40.70
2019-05-01T02:08:37.378Z,39.90
2019-05-01T02:09:37.342Z,37.30
2019-05-01T02:10:43.100Z,36.50
2019-05-01T02:11:37.334Z,35.70
2019-05-01T02:12:37.358Z,34.70
2019-05-01T02:13:37.332Z,32.70
2019-05-01T02:14:37.326Z,33.30
2019-05-01T02:15:37.322Z,32.10
2019-05-01T02:16:37.318Z,31.70
2019-05-01T02:17:37.339Z,31.60
2019-05-01T02:18:37.310Z,32.00
2019-05-01T02:19:37.303Z,37.40
2019-05-01T02:20:37.304Z,37.50
2019-05-01T02:21:37.303Z,40.80
2019-05-01T02:22:37.323Z,41.60
2019-05-01T02:23:37.297Z,40.80
2019-05-01T02:24:37.384Z,40.90
2019-05-01T02:25:37.286Z,41.80
2019-05-01T02:26:37.282Z,41.20
2019-05-01T02:27:37.308Z,40.20
2019-05-01T02:28:37.279Z,40.90
2019-05-01T02:29:37.273Z,41.50
2019-05-01T02:30:37.271Z,39.20
2019-05-01T02:31:37.271Z,38.90
2019-05-01T02:32:37.291Z,43.80
2019-05-01T02:33:37.258Z,52.70
2019-05-01T02:34:37.257Z,45.90
2019-05-01T02:35:37.249Z,39.80
2019-05-01T02:36:37.256Z,41.40
2019-05-01T02:37:37.271Z,42.00
2019-05-01T02:38:37.241Z,43.70
2019-05-01T02:39:37.239Z,36.50
2019-05-01T02:40:37.236Z,36.80
2019-05-01T02:41:41.121Z,36.30
2019-05-01T02:42:37.256Z,38.20
2019-05-01T02:43:37.223Z,36.60
2019-05-01T02:44:37.221Z,37.00
2019-05-01T02:45:37.217Z,38.30
2019-05-01T02:46:37.214Z,38.40
2019-05-01T02:47:37.239Z,37.50
2019-05-01T02:48:37.205Z,38.30
2019-05-01T02:49:37.204Z,37.10
2019-05-01T02:50:37.206Z,40.70
2019-05-01T02:51:37.200Z,45.60
2019-05-01T02:52:37.246Z,41.40
2019-05-01T02:53:37.190Z,37.40
2019-05-01T02:54:37.193Z,36.90
2019-05-01T02:55:37.202Z,35.80
2019-05-01T02:56:37.185Z,35.40
2019-05-01T02:57:37.291Z,35.10
2019-05-01T02:58:37.180Z,34.40
2019-05-01T02:59:37.169Z,35.10
2019-05-01T03:00:37.176Z,35.40
2019-05-01T03:01:46.655Z,35.40
2019-05-01T03:02:37.193Z,36.20
2019-05-01T03:03:37.157Z,36.00
2019-05-01T03:04:37.165Z,39.40
2019-05-01T03:05:37.151Z,38.20
2019-05-01T03:06:37.151Z,42.20
2019-05-01T03:07:37.154Z,40.30
2019-05-01T03:08:37.177Z,53.60
2019-05-01T03:09:37.150Z,37.90
2019-05-01T03:10:37.134Z,33.20
2019-05-01T03:11:37.133Z,32.80
2019-05-01T03:12:37.127Z,33.00
2019-05-01T03:13:37.154Z,31.90
2019-05-01T03:14:37.121Z,33.90
2019-05-01T03:15:37.120Z,32.40
2019-05-01T03:16:37.116Z,33.50
2019-05-01T03:17:37.111Z,33.20
2019-05-01T03:18:37.141Z,32.80
2019-05-01T03:19:37.105Z,32.80
2019-05-01T03:20:37.110Z,32.80
2019-05-01T03:21:37.105Z,32.60
2019-05-01T03:22:37.096Z,34.00
2019-05-01T03:23:37.122Z,34.50
2019-05-01T03:24:37.095Z,34.70
2019-05-01T03:25:37.086Z,33.90
2019-05-01T03:26:37.089Z,34.40
2019-05-01T03:27:37.083Z,33.40
2019-05-01T03:28:37.104Z,35.50
2019-05-01T03:29:37.076Z,34.50
2019-05-01T03:30:37.081Z,35.10
2019-05-01T03:31:37.072Z,35.10
2019-05-01T03:32:37.067Z,35.60
2019-05-01T03:33:37.148Z,35.80
2019-05-01T03:34:37.063Z,35.70
2019-05-01T03:35:37.061Z,35.30
2019-05-01T03:36:37.068Z,36.10
2019-05-01T03:37:37.051Z,36.60
2019-05-01T03:38:37.077Z,35.30
2019-05-01T03:39:37.057Z,36.40
2019-05-01T03:40:37.052Z,36.90
2019-05-01T03:41:37.040Z,37.20
2019-05-01T03:42:37.040Z,36.80
2019-05-01T03:43:37.062Z,39.60
2019-05-01T03:44:37.038Z,39.20
2019-05-01T03:45:37.034Z,40.40
2019-05-01T03:46:37.025Z,42.70
2019-05-01T03:47:37.026Z,38.80
2019-05-01T03:48:37.052Z,36.10
2019-05-01T03:49:37.021Z,34.30
2019-05-01T03:50:37.014Z,32.70
2019-05-01T03:51:37.011Z,32.10
2019-05-01T03:52:37.008Z,31.40
2019-05-01T03:53:37.035Z,31.80
2019-05-01T03:54:37.000Z,34.00
2019-05-01T03:55:37.001Z,35.60
2019-05-01T03:56:36.996Z,35.40
2019-05-01T03:57:36.996Z,37.20
2019-05-01T03:58:37.017Z,37.30
2019-05-01T03:59:36.985Z,37.70
2019-05-01T04:00:36.985Z,36.80
2019-05-01T04:01:36.981Z,34.60
2019-05-01T04:02:36.977Z,35.20
2019-05-01T04:03:37.007Z,34.60
2019-05-01T04:04:36.978Z,35.20
2019-05-01T04:05:36.969Z,34.00
2019-05-01T04:06:36.965Z,32.90
2019-05-01T04:07:36.970Z,34.00
2019-05-01T04:08:37.002Z,30.30
2019-05-01T04:09:36.991Z,32.00
2019-05-01T04:10:36.954Z,39.30
2019-05-01T04:11:36.952Z,37.50
2019-05-01T04:12:36.949Z,35.70
2019-05-01T04:13:36.942Z,31.30
2019-05-01T04:14:39.589Z,33.00
2019-05-01T04:15:36.943Z,32.70
2019-05-01T04:16:36.946Z,33.20
2019-05-01T04:17:36.937Z,34.00
2019-05-01T04:18:36.939Z,34.60
2019-05-01T04:19:36.962Z,34.20
2019-05-01T04:20:36.925Z,32.90
2019-05-01T04:21:36.927Z,31.60
2019-05-01T04:22:36.924Z,32.80
2019-05-01T04:23:36.919Z,31.30
2019-05-01T04:24:36.949Z,31.20
2019-05-01T04:25:36.919Z,32.10
2019-05-01T04:26:36.913Z,31.80
2019-05-01T04:27:36.909Z,32.80
2019-05-01T04:28:36.959Z,31.50
2019-05-01T04:29:36.933Z,34.60
2019-05-01T04:30:36.905Z,34.20
2019-05-01T04:31:36.901Z,34.20
2019-05-01T04:32:51.144Z,32.70
2019-05-01T04:33:36.892Z,34.20
2019-05-01T04:34:36.923Z,33.50
2019-05-01T04:35:36.886Z,33.20
2019-05-01T04:36:36.879Z,34.10
2019-05-01T04:37:36.880Z,33.20
2019-05-01T04:38:36.876Z,35.10
2019-05-01T04:39:36.906Z,37.20
2019-05-01T04:40:36.889Z,37.60
2019-05-01T04:41:36.867Z,36.60
2019-05-01T04:42:36.869Z,37.60
2019-05-01T04:43:36.868Z,37.90
2019-05-01T04:44:36.885Z,36.20
2019-05-01T04:45:36.859Z,37.40
2019-05-01T04:46:36.851Z,35.80
2019-05-01T04:47:36.859Z,36.00
2019-05-01T04:48:36.854Z,36.40
2019-05-01T04:49:36.882Z,36.60
2019-05-01T04:50:36.839Z,33.20
2019-05-01T04:51:36.843Z,35.90
2019-05-01T04:52:36.840Z,34.70
2019-05-01T04:53:36.838Z,35.30
2019-05-01T04:54:36.861Z,33.50
2019-05-01T04:55:36.831Z,34.30
2019-05-01T04:56:36.827Z,31.10
2019-05-01T04:57:36.824Z,30.00
2019-05-01T04:58:36.823Z,30.00
2019-05-01T04:59:36.849Z,28.00
2019-05-01T05:00:36.820Z,27.40
2019-05-01T05:01:36.816Z,28.40
2019-05-01T05:02:36.814Z,30.50
2019-05-01T05:03:36.810Z,30.60
2019-05-01T05:04:36.835Z,31.30
2019-05-01T05:05:36.807Z,32.70
2019-05-01T05:06:36.804Z,38.40
2019-05-01T05:07:36.804Z,39.80
2019-05-01T05:08:36.798Z,33.10
2019-05-01T05:09:36.831Z,34.70
2019-05-01T05:10:36.797Z,29.50
2019-05-01T05:11:36.796Z,28.50
2019-05-01T05:12:36.792Z,28.30
2019-05-01T05:13:36.793Z,29.30
2019-05-01T05:14:36.813Z,30.10
2019-05-01T05:15:36.792Z,31.20
2019-05-01T05:16:36.784Z,30.80
2019-05-01T05:17:36.783Z,31.50
2019-05-01T05:18:36.781Z,30.40
2019-05-01T05:19:36.805Z,30.60
2019-05-01T05:20:36.776Z,32.60
2019-05-01T05:21:36.772Z,32.10
2019-05-01T05:22:36.771Z,32.20
2019-05-01T05:23:36.769Z,32.30
2019-05-01T05:24:36.800Z,31.50
2019-05-01T05:25:36.764Z,32.80
2019-05-01T05:26:36.760Z,33.10
2019-05-01T05:27:36.761Z,32.50
2019-05-01T05:28:36.761Z,31.70
2019-05-01T05:29:36.785Z,31.20
2019-05-01T05:30:36.768Z,31.30
2019-05-01T05:31:36.753Z,29.90
2019-05-01T05:32:36.750Z,30.10
2019-05-01T05:33:36.748Z,26.90
2019-05-01T05:34:36.773Z,28.30
2019-05-01T05:35:36.753Z,29.00
2019-05-01T05:36:36.750Z,28.20
2019-05-01T05:37:36.743Z,27.30
2019-05-01T05:38:36.736Z,28.70
2019-05-01T05:39:36.733Z,27.40
2019-05-01T05:40:36.765Z,27.80
2019-05-01T05:41:36.732Z,30.00
2019-05-01T05:42:36.729Z,28.00
2019-05-01T05:43:36.730Z,27.00
2019-05-01T05:44:36.727Z,27.40
2019-05-01T05:45:36.758Z,26.90
2019-05-01T05:46:36.722Z,26.90
2019-05-01T05:47:36.723Z,27.00
2019-05-01T05:48:36.719Z,26.20
2019-05-01T05:49:36.718Z,24.80
2019-05-01T05:50:36.753Z,24.40
2019-05-01T05:51:36.718Z,27.00
2019-05-01T05:52:36.714Z,27.90
2019-05-01T05:53:36.712Z,27.60
2019-05-01T05:54:36.706Z,27.70
2019-05-01T05:55:36.738Z,28.20
2019-05-01T05:56:36.711Z,27.40
2019-05-01T05:57:36.706Z,27.00
2019-05-01T05:58:36.698Z,26.40
2019-05-01T05:59:36.702Z,28.20
2019-05-01T06:00:36.727Z,27.80
2019-05-01T06:01:36.697Z,30.20
2019-05-01T06:02:36.691Z,29.40
2019-05-01T06:03:36.697Z,29.20
2019-05-01T06:04:36.691Z,30.80
2019-05-01T06:05:36.712Z,30.50
2019-05-01T06:06:36.689Z,31.60
2019-05-01T06:07:36.696Z,31.10
2019-05-01T06:08:36.684Z,32.80
2019-05-01T06:09:36.681Z,31.00
2019-05-01T06:10:36.707Z,31.20
2019-05-01T06:11:36.671Z,30.90
2019-05-01T06:12:37.294Z,29.70
2019-05-01T06:13:36.671Z,29.20
2019-05-01T06:14:36.671Z,28.70
2019-05-01T06:15:41.013Z,27.60
2019-05-01T06:16:36.668Z,28.00
2019-05-01T06:17:36.667Z,27.90
2019-05-01T06:18:39.283Z,28.10
2019-05-01T06:19:36.664Z,27.00
2019-05-01T06:20:37.533Z,30.00
2019-05-01T06:21:36.695Z,29.30
2019-05-01T06:22:40.626Z,31.50
2019-05-01T06:23:36.656Z,33.30
2019-05-01T06:24:40.585Z,28.10
2019-05-01T06:25:36.653Z,26.20
2019-05-01T06:26:37.800Z,26.70
2019-05-01T06:27:36.653Z,26.20
2019-05-01T06:28:36.653Z,24.50
2019-05-01T06:29:37.289Z,26.10
2019-05-01T06:30:36.644Z,25.40
2019-05-01T06:31:36.677Z,24.00
2019-05-01T06:32:36.652Z,24.40
2019-05-01T06:33:44.032Z,24.80
2019-05-01T06:34:36.640Z,26.60
2019-05-01T06:35:38.085Z,28.30
2019-05-01T06:36:36.677Z,27.80
2019-05-01T06:37:36.645Z,27.90
2019-05-01T06:38:37.796Z,26.00
2019-05-01T06:39:36.644Z,23.70
2019-05-01T06:40:36.641Z,25.90
2019-05-01T06:41:42.479Z,25.10
2019-05-01T06:42:36.642Z,25.80
2019-05-01T06:43:36.643Z,22.50
2019-05-01T06:44:39.264Z,26.60
2019-05-01T06:45:36.643Z,25.90
2019-05-01T06:46:36.674Z,26.00
2019-05-01T06:47:38.265Z,28.20
2019-05-01T06:48:36.641Z,27.70
2019-05-01T06:49:36.640Z,25.10
2019-05-01T06:50:37.115Z,26.00
2019-05-01T06:51:36.675Z,25.20
2019-05-01T06:52:36.667Z,24.60
2019-05-01T06:53:39.963Z,25.00
2019-05-01T06:54:36.634Z,25.20
2019-05-01T06:55:36.636Z,24.00
2019-05-01T06:56:36.641Z,25.20
2019-05-01T06:57:38.474Z,24.20
2019-05-01T06:58:36.642Z,23.50
2019-05-01T06:59:37.610Z,22.50
2019-05-01T07:00:39.263Z,20.30
2019-05-01T07:01:36.639Z,21.30
2019-05-01T07:02:36.978Z,21.80
2019-05-01T07:03:40.679Z,22.60
2019-05-01T07:04:37.933Z,19.90
2019-05-01T07:05:36.640Z,22.20
2019-05-01T07:06:36.641Z,23.10
2019-05-01T07:07:36.672Z,23.00
2019-05-01T07:08:39.502Z,21.20
2019-05-01T07:09:36.643Z,21.20
2019-05-01T07:10:43.601Z,23.00
2019-05-01T07:11:36.678Z,23.40
2019-05-01T07:12:36.667Z,23.20
2019-05-01T07:13:40.125Z,20.80
2019-05-01T07:14:36.640Z,21.90
2019-05-01T07:15:36.638Z,21.80
2019-05-01T07:16:38.076Z,17.80
2019-05-01T07:17:36.665Z,20.20
2019-05-01T07:18:36.640Z,21.30
2019-05-01T07:19:40.278Z,21.40
2019-05-01T07:20:36.643Z,21.50
2019-05-01T07:21:36.643Z,21.90
2019-05-01T07:22:37.148Z,22.10
2019-05-01T07:23:36.647Z,20.20
2019-05-01T07:24:36.643Z,21.20
2019-05-01T07:25:39.456Z,21.60
2019-05-01T07:26:36.643Z,20.50
2019-05-01T07:27:36.676Z,21.10
2019-05-01T07:28:36.643Z,21.00
2019-05-01T07:29:39.834Z,22.30
2019-05-01T07:30:36.644Z,20.80
2019-05-01T07:31:36.646Z,20.30
2019-05-01T07:32:41.226Z,21.40
2019-05-01T07:33:36.643Z,22.50
2019-05-01T07:34:36.648Z,21.80
2019-05-01T07:35:37.854Z,19.90
2019-05-01T07:36:36.648Z,22.30
2019-05-01T07:37:36.671Z,22.90
2019-05-01T07:38:38.288Z,22.80
2019-05-01T07:39:36.649Z,21.80
2019-05-01T07:40:36.648Z,22.10
2019-05-01T07:41:37.709Z,22.40
2019-05-01T07:42:36.677Z,22.30
2019-05-01T07:43:36.647Z,22.70
2019-05-01T07:44:36.646Z,22.00
2019-05-01T07:45:39.049Z,22.30
2019-05-01T07:46:36.645Z,22.40
2019-05-01T07:47:36.675Z,19.70
2019-05-01T07:48:41.437Z,22.00
2019-05-01T07:49:36.644Z,21.60
2019-05-01T07:50:36.650Z,22.70
2019-05-01T07:51:37.745Z,22.10
2019-05-01T07:52:36.669Z,23.20
2019-05-01T07:53:36.645Z,22.50
2019-05-01T07:54:37.812Z,23.30
2019-05-01T07:55:36.640Z,23.00
2019-05-01T07:56:36.638Z,22.40
2019-05-01T07:57:39.640Z,22.20
2019-05-01T07:58:36.636Z,22.00
2019-05-01T07:59:36.702Z,22.80
2019-05-01T08:00:37.026Z,22.60
2019-05-01T08:01:36.637Z,23.40
2019-05-01T08:02:36.677Z,23.50
2019-05-01T08:03:37.934Z,22.10
2019-05-01T08:04:36.834Z,21.80
2019-05-01T08:05:40.699Z,22.40
2019-05-01T08:06:36.670Z,22.30
2019-05-01T08:07:36.638Z,21.70
2019-05-01T08:08:39.546Z,21.50
2019-05-01T08:09:36.630Z,20.10
2019-05-01T08:10:36.631Z,18.80
2019-05-01T08:11:39.134Z,19.90
2019-05-01T08:12:36.639Z,20.10
2019-05-01T08:13:36.671Z,21.10
2019-05-01T08:14:36.627Z,17.30
2019-05-01T08:15:36.634Z,19.20
2019-05-01T08:16:37.873Z,18.30
2019-05-01T08:17:36.627Z,15.90
2019-05-01T08:18:36.654Z,20.10
2019-05-01T08:19:39.364Z,19.50
2019-05-01T08:20:36.626Z,20.10
2019-05-01T08:21:36.628Z,20.00
2019-05-01T08:22:37.096Z,18.20
2019-05-01T08:23:36.660Z,18.50
2019-05-01T08:24:36.635Z,17.70
2019-05-01T08:25:36.712Z,19.60
2019-05-01T08:26:39.656Z,19.60
2019-05-01T08:27:36.628Z,18.40
2019-05-01T08:28:36.660Z,17.40
2019-05-01T08:29:37.003Z,18.70
2019-05-01T08:30:36.625Z,19.30
2019-05-01T08:31:36.627Z,17.90
2019-05-01T08:32:39.266Z,18.80
2019-05-01T08:33:36.667Z,20.30
2019-05-01T08:34:48.408Z,17.80
2019-05-01T08:35:37.647Z,18.20
2019-05-01T08:36:36.632Z,17.60
2019-05-01T08:37:36.633Z,19.10
2019-05-01T08:38:36.670Z,17.60
2019-05-01T08:39:39.603Z,17.90
2019-05-01T08:40:37.769Z,16.00
2019-05-01T08:41:37.736Z,16.40
2019-05-01T08:42:37.785Z,16.60
2019-05-01T08:43:36.651Z,17.80
2019-05-01T08:44:36.685Z,16.10
2019-05-01T08:45:40.610Z,14.90
2019-05-01T08:46:36.652Z,17.10
2019-05-01T08:47:36.652Z,14.60
2019-05-01T08:48:37.757Z,14.10
2019-05-01T08:49:36.685Z,16.20
2019-05-01T08:50:36.661Z,15.80
2019-05-01T08:51:36.658Z,19.30
2019-05-01T08:52:36.660Z,20.60
2019-05-01T08:53:36.668Z,14.30
2019-05-01T08:54:36.702Z,16.10
2019-05-01T08:55:39.837Z,18.90
2019-05-01T08:56:36.684Z,16.00
2019-05-01T08:57:39.300Z,17.60
2019-05-01T08:58:36.676Z,19.30
2019-05-01T08:59:36.711Z,16.10
2019-05-01T09:00:41.062Z,16.00
2019-05-01T09:01:36.696Z,16.10
2019-05-01T09:02:41.021Z,16.50
2019-05-01T09:03:36.698Z,14.00
2019-05-01T09:04:36.701Z,15.50
2019-05-01T09:05:36.730Z,16.10
2019-05-01T09:06:39.267Z,14.90
2019-05-01T09:07:36.744Z,30.60
2019-05-01T09:08:36.736Z,17.80
2019-05-01T09:09:39.729Z,13.70
2019-05-01T09:10:36.742Z,13.30
2019-05-01T09:11:37.428Z,16.00
2019-05-01T09:12:36.715Z,16.30
2019-05-01T09:13:36.727Z,15.00
2019-05-01T09:14:36.828Z,14.40
2019-05-01T09:15:36.770Z,14.60
2019-05-01T09:16:36.731Z,14.90
2019-05-01T09:17:36.737Z,14.20
2019-05-01T09:18:36.735Z,15.60
2019-05-01T09:19:36.735Z,13.40
2019-05-01T09:20:36.767Z,14.80
2019-05-01T09:21:37.770Z,14.70
2019-05-01T09:22:36.751Z,14.50
2019-05-01T09:23:36.761Z,13.60
2019-05-01T09:24:36.764Z,13.30
2019-05-01T09:25:36.897Z,14.30
2019-05-01T09:26:36.763Z,14.40
2019-05-01T09:27:36.764Z,12.90
2019-05-01T09:28:39.851Z,14.30
2019-05-01T09:29:36.780Z,14.30
2019-05-01T09:30:36.810Z,13.30
2019-05-01T09:31:36.786Z,14.00
2019-05-01T09:32:36.791Z,14.20
2019-05-01T09:33:36.804Z,12.80
2019-05-01T09:34:36.802Z,12.60
2019-05-01T09:35:40.312Z,11.40
2019-05-01T09:36:36.810Z,11.00
2019-05-01T09:37:36.820Z,11.00
2019-05-01T09:38:36.821Z,11.70
2019-05-01T09:39:36.821Z,11.90
2019-05-01T09:40:36.867Z,12.20
2019-05-01T09:41:38.275Z,11.70
2019-05-01T09:42:36.840Z,12.40
2019-05-01T09:43:37.051Z,12.90
2019-05-01T09:44:36.852Z,12.00
2019-05-01T09:45:36.856Z,11.60
2019-05-01T09:46:36.895Z,10.40
2019-05-01T09:47:36.865Z,10.20
2019-05-01T09:48:36.876Z,10.30
2019-05-01T09:49:36.877Z,10.20
2019-05-01T09:50:36.889Z,10.30
2019-05-01T09:51:36.923Z,10.80
2019-05-01T09:52:36.898Z,9.70
2019-05-01T09:53:36.917Z,9.50
2019-05-01T09:54:36.911Z,8.40
2019-05-01T09:55:36.921Z,9.00
2019-05-01T09:56:38.465Z,8.80
2019-05-01T09:57:41.380Z,9.40
2019-05-01T09:58:36.938Z,9.90
2019-05-01T09:59:36.953Z,9.40
2019-05-01T10:00:36.961Z,9.20
2019-05-01T10:01:36.998Z,9.20
2019-05-01T10:02:37.565Z,9.10
2019-05-01T10:03:36.984Z,8.80
2019-05-01T10:04:36.999Z,8.70
2019-05-01T10:05:38.002Z,8.60
2019-05-01T10:06:37.042Z,7.60
2019-05-01T10:07:37.026Z,8.60
2019-05-01T10:08:39.902Z,8.50
2019-05-01T10:09:37.047Z,8.40
2019-05-01T10:10:37.190Z,7.80
2019-05-01T10:11:40.639Z,6.30
2019-05-01T10:12:37.074Z,6.90
2019-05-01T10:13:37.080Z,6.50
2019-05-01T10:14:37.513Z,6.00
2019-05-01T10:15:37.101Z,6.30
2019-05-01T10:16:37.139Z,5.90
2019-05-01T10:17:37.111Z,5.50
2019-05-01T10:18:37.651Z,5.80
2019-05-01T10:19:37.124Z,5.30
2019-05-01T10:20:37.132Z,5.40
2019-05-01T10:21:37.176Z,6.10
2019-05-01T10:22:37.485Z,5.60
2019-05-01T10:23:37.159Z,5.70
2019-05-01T10:24:39.225Z,5.80
2019-05-01T10:25:37.172Z,5.80
2019-05-01T10:26:37.189Z,4.50
2019-05-01T10:27:37.425Z,4.90
2019-05-01T10:28:37.203Z,5.60
2019-05-01T10:29:37.209Z,4.40
2019-05-01T10:30:37.623Z,5.30
2019-05-01T10:31:37.227Z,5.60
2019-05-01T10:32:37.253Z,5.60
2019-05-01T10:33:37.233Z,5.60
2019-05-01T10:34:38.716Z,5.80
2019-05-01T10:35:42.842Z,5.30
2019-05-01T10:36:37.257Z,4.80
2019-05-01T10:37:37.293Z,5.10
2019-05-01T10:38:40.023Z,5.70
2019-05-01T10:39:37.278Z,5.30
2019-05-01T10:40:37.289Z,5.20
2019-05-01T10:41:41.255Z,5.20
2019-05-01T10:42:37.333Z,4.90
2019-05-01T10:43:37.314Z,5.10
2019-05-01T10:44:37.322Z,4.90
2019-05-01T10:45:37.338Z,5.20
2019-05-01T10:46:37.343Z,5.00
2019-05-01T10:47:37.379Z,5.20
2019-05-01T10:48:37.358Z,5.00
2019-05-01T10:49:37.374Z,5.10
2019-05-01T10:50:37.386Z,5.60
2019-05-01T10:51:37.395Z,5.60
2019-05-01T10:52:37.434Z,5.30
2019-05-01T10:53:37.421Z,5.40
2019-05-01T10:54:37.429Z,5.20
2019-05-01T10:55:37.442Z,4.90
2019-05-01T10:56:37.461Z,4.80
2019-05-01T10:57:40.539Z,4.90
2019-05-01T10:58:37.483Z,4.20
2019-05-01T10:59:37.495Z,5.00
2019-05-01T11:00:37.511Z,4.00
2019-05-01T11:01:37.527Z,4.50
2019-05-01T11:02:37.567Z,4.40
2019-05-01T11:03:37.555Z,4.70
2019-05-01T11:04:37.571Z,4.70
2019-05-01T11:05:37.580Z,4.60
2019-05-01T11:06:37.604Z,4.70
2019-05-01T11:07:37.636Z,4.60
2019-05-01T11:08:37.656Z,5.00
2019-05-01T11:09:37.640Z,4.40
2019-05-01T11:10:37.656Z,4.60
2019-05-01T11:11:37.673Z,4.80
2019-05-01T11:12:37.690Z,4.70
2019-05-01T11:13:37.724Z,4.60
2019-05-01T11:14:37.717Z,4.70
2019-05-01T11:15:37.737Z,5.10
2019-05-01T11:16:37.758Z,5.40
2019-05-01T11:17:37.761Z,5.10
2019-05-01T11:18:37.885Z,5.10
2019-05-01T11:19:37.814Z,4.80
2019-05-01T11:20:37.809Z,4.60
2019-05-01T11:21:37.822Z,4.30
2019-05-01T11:22:37.836Z,4.80
2019-05-01T11:23:37.881Z,4.80
2019-05-01T11:24:37.865Z,4.90
2019-05-01T11:25:37.882Z,4.90
2019-05-01T11:26:37.898Z,4.80
2019-05-01T11:27:37.922Z,4.60
2019-05-01T11:28:37.954Z,4.70
2019-05-01T11:29:37.939Z,4.30
2019-05-01T11:30:37.961Z,4.40
2019-05-01T11:31:37.971Z,4.60
2019-05-01T11:32:37.987Z,4.80
2019-05-01T11:33:38.035Z,4.60
2019-05-01T11:34:38.023Z,4.40
2019-05-01T11:35:38.035Z,4.60
2019-05-01T11:36:38.685Z,4.50
2019-05-01T11:37:38.066Z,4.80
2019-05-01T11:38:38.108Z,5.40
2019-05-01T11:39:40.712Z,4.70
2019-05-01T11:40:38.108Z,4.70
2019-05-01T11:41:38.128Z,4.50
2019-05-01T11:42:38.140Z,4.70
2019-05-01T11:43:38.182Z,3.90
2019-05-01T11:44:38.176Z,4.50
2019-05-01T11:45:38.189Z,4.40
2019-05-01T11:46:38.200Z,4.40
2019-05-01T11:47:38.221Z,4.40
2019-05-01T11:48:38.262Z,5.00
2019-05-01T11:49:38.253Z,4.60
2019-05-01T11:50:38.275Z,4.70
2019-05-01T11:51:38.281Z,4.40
2019-05-01T11:52:38.301Z,4.50
2019-05-01T11:53:38.346Z,4.30
2019-05-01T11:54:38.333Z,4.20
2019-05-01T11:55:38.347Z,4.10
2019-05-01T11:56:38.413Z,3.90
2019-05-01T11:57:38.375Z,4.20
2019-05-01T11:58:38.426Z,4.00
2019-05-01T11:59:38.412Z,4.30
2019-05-01T12:00:38.422Z,4.60
2019-05-01T12:01:38.444Z,4.20
2019-05-01T12:02:38.459Z,4.20
2019-05-01T12:03:38.502Z,4.10
2019-05-01T12:04:38.519Z,4.20
2019-05-01T12:05:38.503Z,4.10
2019-05-01T12:06:38.519Z,4.20
2019-05-01T12:07:38.535Z,4.50
2019-05-01T12:08:38.551Z,4.50
2019-05-01T12:09:38.596Z,4.20
2019-05-01T12:10:38.583Z,4.30
2019-05-01T12:11:38.599Z,4.30
2019-05-01T12:12:38.619Z,4.00
2019-05-01T12:13:43.918Z,4.50
2019-05-01T12:14:38.685Z,4.30
2019-05-01T12:15:38.667Z,4.50
2019-05-01T12:16:38.736Z,4.50
2019-05-01T12:17:38.997Z,7.40
2019-05-01T12:18:38.720Z,6.30
2019-05-01T12:19:38.757Z,6.00
2019-05-01T12:20:38.756Z,6.70
2019-05-01T12:21:38.770Z,6.00
2019-05-01T12:22:38.778Z,4.80
2019-05-01T12:23:38.797Z,5.10
2019-05-01T12:24:38.841Z,5.30
2019-05-01T12:25:38.833Z,5.30
2019-05-01T12:26:38.845Z,4.90
2019-05-01T12:27:38.861Z,5.00
2019-05-01T12:28:38.879Z,4.90
2019-05-01T12:29:38.933Z,4.60
2019-05-01T12:30:38.917Z,5.60
2019-05-01T12:31:38.934Z,5.10
2019-05-01T12:32:38.945Z,5.50
2019-05-01T12:33:38.965Z,5.60
2019-05-01T12:34:39.003Z,6.30
2019-05-01T12:35:39.007Z,5.00
2019-05-01T12:36:39.066Z,5.50
2019-05-01T12:37:39.027Z,4.50
2019-05-01T12:38:39.039Z,5.00
2019-05-01T12:39:39.099Z,4.40
2019-05-01T12:40:39.076Z,4.60
2019-05-01T12:41:39.092Z,4.20
2019-05-01T12:42:39.107Z,5.20
2019-05-01T12:43:39.121Z,5.00
2019-05-01T12:44:39.164Z,4.70
2019-05-01T12:45:39.150Z,4.70
2019-05-01T12:46:39.168Z,4.80
2019-05-01T12:47:39.184Z,5.10
2019-05-01T12:48:39.200Z,4.90
2019-05-01T12:49:39.248Z,5.10
2019-05-01T12:50:39.228Z,5.00
2019-05-01T12:51:39.246Z,4.60
2019-05-01T12:52:39.265Z,5.00
2019-05-01T12:53:39.274Z,4.80
2019-05-01T12:54:39.329Z,5.00
2019-05-01T12:55:39.337Z,5.20
2019-05-01T12:56:39.406Z,4.90
2019-05-01T12:57:39.342Z,5.20
2019-05-01T12:58:39.366Z,4.70